Time;durP1;ratioP1;P1;durP2;ratioP2;P2;SDS_P1;SDS_P2;PMS_P1;PMS_P2;Temp;Humidity;BMP_temperature;BMP_pressure;BME280_temperature;BME280_humidity;BME280_pressure;Samples;Min_cycle;Max_cycle;Signal;HPM_P1;HPM_P2
2022/07/22 00:00:48;;;;;;;;;;;;;;;17.01;100.00;102127.16;4745257;30;20118;-58
2022/07/22 00:03:14;;;;;;;15.13;2.88;;;;;;;16.96;100.00;102127.63;4742181;30;20299;-60
2022/07/22 00:05:41;;;;;;;14.60;3.22;;;;;;;16.96;100.00;102126.81;4735718;30;20060;-60
2022/07/22 00:08:07;;;;;;;13.85;2.90;;;;;;;16.96;100.00;102124.16;4728499;30;20379;-60
2022/07/22 00:10:33;;;;;;;10.77;3.78;;;;;;;17.01;100.00;102127.16;4740019;30;20501;-60
2022/07/22 00:13:00;;;;;;;13.27;3.38;;;;;;;17.03;100.00;102130.47;4731503;30;20589;-60
2022/07/22 00:15:26;;;;;;;9.27;2.97;;;;;;;17.06;100.00;102132.00;4733734;30;20071;-60
2022/07/22 00:17:53;;;;;;;6.55;2.58;;;;;;;17.10;100.00;102138.66;4738693;30;20064;-60
2022/07/22 00:20:19;;;;;;;12.32;3.20;;;;;;;17.07;100.00;102131.84;4728843;30;20732;-60
2022/07/22 00:22:46;;;;;;;9.98;3.40;;;;;;;17.10;100.00;102136.00;4719057;30;20147;-60
2022/07/22 00:25:13;;;;;;;11.02;3.22;;;;;;;17.11;100.00;102127.88;4745564;30;20059;-60
2022/07/22 00:27:39;;;;;;;9.95;3.03;;;;;;;17.12;100.00;102134.84;4739977;30;20064;-62
2022/07/22 00:30:06;;;;;;;12.75;3.05;;;;;;;17.18;100.00;102133.38;4743528;30;20070;-60
2022/07/22 00:32:35;;;;;;;8.10;3.03;;;;;;;17.14;100.00;102130.22;4741505;30;20061;-61
2022/07/22 00:35:02;;;;;;;11.57;2.97;;;;;;;17.13;100.00;102128.56;4744743;30;20578;-60
2022/07/22 00:37:28;;;;;;;7.82;2.45;;;;;;;17.17;100.00;102137.00;4744299;30;20426;-61
2022/07/22 00:39:55;;;;;;;8.93;2.90;;;;;;;17.17;100.00;102124.59;4744747;30;20089;-61
2022/07/22 00:42:21;;;;;;;9.95;2.78;;;;;;;17.18;100.00;102125.44;4750726;30;20064;-61
2022/07/22 00:44:49;;;;;;;9.50;2.72;;;;;;;17.23;100.00;102128.44;4745007;30;20091;-60
2022/07/22 00:47:16;;;;;;;11.23;2.65;;;;;;;17.24;100.00;102118.66;4742677;30;20060;-60
2022/07/22 00:49:42;;;;;;;8.65;2.85;;;;;;;17.24;100.00;102123.97;4736396;30;20067;-58
2022/07/22 00:52:09;;;;;;;12.60;3.17;;;;;;;17.20;100.00;102123.44;4745087;30;20079;-61
2022/07/22 00:54:37;;;;;;;10.20;2.83;;;;;;;17.21;100.00;102117.16;4751507;30;20422;-60
2022/07/22 00:57:03;;;;;;;11.50;2.75;;;;;;;17.13;100.00;102120.59;4745152;30;20070;-61
2022/07/22 00:59:30;;;;;;;12.98;2.80;;;;;;;17.18;100.00;102114.81;4746101;30;20064;-62
2022/07/22 01:01:56;;;;;;;8.80;2.50;;;;;;;17.12;100.00;102116.28;4751920;29;20485;-61
2022/07/22 01:04:23;;;;;;;11.32;3.00;;;;;;;17.11;100.00;102113.78;4742938;30;20076;-62
2022/07/22 01:06:50;;;;;;;9.20;2.70;;;;;;;17.06;100.00;102110.78;4734028;30;20470;-61
2022/07/22 01:09:17;;;;;;;9.23;2.42;;;;;;;17.12;100.00;102107.50;4746741;30;20056;-60
2022/07/22 01:11:43;;;;;;;7.85;2.70;;;;;;;17.11;100.00;102103.19;4739641;30;20064;-61
2022/07/22 01:14:09;;;;;;;11.60;2.58;;;;;;;17.10;100.00;102101.53;4748858;30;20060;-62
2022/07/22 01:16:36;;;;;;;9.48;2.60;;;;;;;17.10;100.00;102107.66;4744973;30;20294;-61
2022/07/22 01:19:04;;;;;;;11.15;2.25;;;;;;;17.17;100.00;102113.16;4721365;30;20068;-62
2022/07/22 01:21:31;;;;;;;8.10;2.60;;;;;;;17.20;100.00;102108.34;4750266;30;20056;-61
2022/07/22 01:23:58;;;;;;;13.88;2.97;;;;;;;17.19;100.00;102104.06;4736854;30;20053;-61
2022/07/22 01:26:25;;;;;;;10.23;2.70;;;;;;;17.18;100.00;102106.88;4744804;30;20060;-61
2022/07/22 01:28:51;;;;;;;9.95;2.78;;;;;;;17.16;100.00;102108.84;4741126;30;20075;-59
2022/07/22 01:31:18;;;;;;;10.05;2.83;;;;;;;17.18;100.00;102118.28;4736785;30;20056;-56
2022/07/22 01:33:45;;;;;;;10.38;3.10;;;;;;;17.16;100.00;102112.31;4744250;30;20074;-61
2022/07/22 01:36:12;;;;;;;10.10;2.97;;;;;;;17.18;100.00;102114.81;4738668;30;20407;-61
2022/07/22 01:38:38;;;;;;;10.07;3.00;;;;;;;17.18;100.00;102117.47;4747207;30;20086;-61
2022/07/22 01:41:05;;;;;;;8.52;2.40;;;;;;;17.15;100.00;102115.97;4731483;30;20078;-61
2022/07/22 01:43:32;;;;;;;9.93;2.42;;;;;;;17.12;100.00;102118.94;4744742;30;20502;-61
2022/07/22 01:45:58;;;;;;;8.60;2.58;;;;;;;17.12;100.00;102112.81;4738232;30;20283;-61
2022/07/22 01:48:25;;;;;;;10.00;3.03;;;;;;;17.11;100.00;102119.94;4742342;30;20502;-61
2022/07/22 01:50:51;;;;;;;12.65;3.10;;;;;;;17.10;100.00;102123.56;4735858;30;20060;-62
2022/07/22 01:53:18;;;;;;;10.48;2.92;;;;;;;17.08;100.00;102119.41;4727740;30;20060;-62
2022/07/22 01:55:45;;;;;;;7.47;2.90;;;;;;;17.06;100.00;102116.91;4737953;30;20060;-61
2022/07/22 01:58:11;;;;;;;11.60;2.75;;;;;;;17.05;100.00;102112.59;4736305;30;20060;-62
2022/07/22 02:00:37;;;;;;;13.38;2.95;;;;;;;16.99;100.00;102118.53;4744179;30;20057;-62
2022/07/22 02:03:04;;;;;;;8.13;2.80;;;;;;;17.00;100.00;102113.06;4729040;30;20068;-62
2022/07/22 02:05:32;;;;;;;11.07;2.50;;;;;;;17.03;100.00;102109.25;4743290;30;20060;-62
2022/07/22 02:08:01;;;;;;;14.33;2.90;;;;;;;16.99;100.00;102108.78;4744669;30;20056;-61
2022/07/22 02:10:27;;;;;;;12.45;2.83;;;;;;;16.97;100.00;102112.53;4736672;30;20056;-61
2022/07/22 02:12:54;;;;;;;9.93;3.10;;;;;;;16.93;100.00;102111.19;4732641;30;20057;-61
2022/07/22 02:15:20;;;;;;;11.50;2.80;;;;;;;16.88;100.00;102106.38;4727838;30;20072;-61
2022/07/22 02:17:47;;;;;;;7.50;2.90;;;;;;;16.83;100.00;102103.34;4743500;30;20069;-59
2022/07/22 02:20:13;;;;;;;8.70;3.08;;;;;;;16.83;100.00;102105.19;4736409;30;20060;-60
2022/07/22 02:22:40;;;;;;;6.93;2.50;;;;;;;16.84;100.00;102102.38;4741578;30;20064;-61
2022/07/22 02:25:06;;;;;;;8.35;2.40;;;;;;;16.83;100.00;102095.41;4753536;30;20056;-61
2022/07/22 02:27:33;;;;;;;8.30;2.70;;;;;;;16.84;100.00;102097.09;4727725;30;20060;-61
2022/07/22 02:29:59;;;;;;;10.93;2.55;;;;;;;16.82;100.00;102096.41;4745537;30;20076;-62
2022/07/22 02:32:26;;;;;;;9.30;2.63;;;;;;;16.83;100.00;102091.94;4742669;30;20052;-61
2022/07/22 02:34:52;;;;;;;9.90;2.58;;;;;;;16.82;100.00;102090.25;4744385;30;20564;-61
2022/07/22 02:37:24;;;;;;;7.30;2.47;;;;;;;16.78;100.00;102095.84;4737800;30;20145;-61
2022/07/22 02:39:51;;;;;;;9.95;2.60;;;;;;;16.80;100.00;102093.88;4740069;30;20078;-60
2022/07/22 02:42:18;;;;;;;8.15;2.97;;;;;;;16.78;100.00;102084.44;4748424;30;20060;-61
2022/07/22 02:44:44;;;;;;;9.10;2.80;;;;;;;16.80;100.00;102093.06;4741994;30;20070;-60
2022/07/22 02:47:10;;;;;;;9.80;2.80;;;;;;;16.80;100.00;102091.22;4751743;30;20064;-60
2022/07/22 02:49:37;;;;;;;8.63;2.80;;;;;;;16.80;100.00;102088.59;4738432;30;20064;-60
2022/07/22 02:52:03;;;;;;;7.32;2.83;;;;;;;16.80;100.00;102088.59;4738763;30;20158;-58
2022/07/22 02:54:30;;;;;;;7.97;2.35;;;;;;;16.77;100.00;102086.22;4727083;30;20063;-61
2022/07/22 02:56:56;;;;;;;8.95;2.13;;;;;;;16.77;100.00;102086.22;4734675;30;20411;-61
2022/07/22 02:59:22;;;;;;;7.15;2.35;;;;;;;16.76;100.00;102081.94;4745870;30;20086;-61
2022/07/22 03:01:49;;;;;;;6.18;2.47;;;;;;;16.76;100.00;102086.41;4741437;30;20067;-59
2022/07/22 03:04:15;;;;;;;7.75;2.65;;;;;;;16.77;100.00;102091.53;4747170;30;20090;-60
2022/07/22 03:06:43;;;;;;;8.33;2.90;;;;;;;16.75;100.00;102087.38;4735364;30;20510;-61
2022/07/22 03:09:10;;;;;;;5.13;2.20;;;;;;;16.79;100.00;102094.03;4725297;30;20067;-61
2022/07/22 03:11:36;;;;;;;8.43;3.20;;;;;;;16.79;100.00;102088.72;4739381;30;20071;-60
2022/07/22 03:14:03;;;;;;;7.95;2.63;;;;;;;16.78;100.00;102097.69;4737270;30;20087;-60
2022/07/22 03:16:29;;;;;;;10.73;3.17;;;;;;;16.78;100.00;102092.38;4740764;30;20064;-60
2022/07/22 03:18:56;;;;;;;7.10;2.90;;;;;;;16.79;100.00;102088.72;4733468;30;20068;-60
2022/07/22 03:21:23;;;;;;;7.47;2.40;;;;;;;16.78;100.00;102092.38;4740503;30;20155;-60
2022/07/22 03:23:53;;;;;;;6.05;2.50;;;;;;;16.78;100.00;102095.84;4734261;30;20064;-60
2022/07/22 03:26:23;;;;;;;9.65;2.65;;;;;;;16.77;100.00;102099.47;4742881;30;20056;-61
2022/07/22 03:28:50;;;;;;;10.65;2.53;;;;;;;16.74;100.00;102110.41;4748803;30;20075;-61
2022/07/22 03:31:17;;;;;;;11.50;2.78;;;;;;;16.74;100.00;102104.25;4746613;30;20506;-61
2022/07/22 03:33:43;;;;;;;6.07;2.33;;;;;;;16.77;100.00;102112.72;4743623;30;20072;-61
2022/07/22 03:36:10;;;;;;;7.95;2.80;;;;;;;16.81;100.00;102118.56;4713535;30;20101;-61
2022/07/22 03:38:37;;;;;;;13.07;2.47;;;;;;;16.85;100.00;102114.63;4742612;30;20086;-61
2022/07/22 03:41:04;;;;;;;6.60;1.88;;;;;;;16.86;100.00;102110.19;4739310;30;20064;-59
2022/07/22 03:43:31;;;;;;;6.32;2.17;;;;;;;16.85;100.00;102111.97;4736265;30;20071;-60
2022/07/22 03:45:57;;;;;;;6.18;2.42;;;;;;;16.87;100.00;102104.72;4740533;30;20064;-59
2022/07/22 03:48:24;;;;;;;7.00;2.83;;;;;;;16.89;100.00;102107.22;4743614;30;20681;-61
2022/07/22 03:50:51;;;;;;;10.55;2.55;;;;;;;16.90;100.00;102100.94;4742383;30;20497;-60
2022/07/22 03:53:18;;;;;;;6.57;2.42;;;;;;;16.89;100.00;102099.25;4735597;30;20151;-61
2022/07/22 03:55:44;;;;;;;7.97;2.30;;;;;;;16.84;100.00;102090.94;4740643;30;20056;-60
2022/07/22 03:58:10;;;;;;;9.15;2.40;;;;;;;16.84;100.00;102096.22;4722138;30;20071;-61
2022/07/22 04:00:37;;;;;;;9.02;2.33;;;;;;;16.80;100.00;102103.66;4730527;30;20064;-61
2022/07/22 04:03:04;;;;;;;11.13;2.80;;;;;;;16.82;100.00;102096.41;4736350;30;20071;-60
2022/07/22 04:05:30;;;;;;;6.55;2.50;;;;;;;16.81;100.00;102089.41;4723627;30;20808;-62
2022/07/22 04:07:57;;;;;;;7.55;2.40;;;;;;;16.80;100.00;102091.22;4734909;30;20426;-59
2022/07/22 04:10:24;;;;;;;6.05;2.38;;;;;;;16.80;100.00;102093.88;4738833;30;20060;-60
2022/07/22 04:12:50;;;;;;;10.32;2.42;;;;;;;16.82;100.00;102096.41;4738534;30;20426;-60
2022/07/22 04:15:16;;;;;;;4.90;2.13;;;;;;;16.86;100.00;102095.09;4732640;30;20067;-60
2022/07/22 04:17:43;;;;;;;8.65;2.63;;;;;;;16.88;100.00;102095.78;4732136;30;20895;-60
2022/07/22 04:20:10;;;;;;;5.70;2.83;;;;;;;16.91;100.00;102094.63;4742933;30;20520;-60
2022/07/22 04:22:36;;;;;;;6.38;2.50;;;;;;;16.91;100.00;102097.28;4737569;30;20502;-61
2022/07/22 04:25:03;;;;;;;7.05;2.35;;;;;;;16.94;100.00;102102.28;4743351;30;20060;-61
2022/07/22 04:27:29;;;;;;;8.30;2.60;;;;;;;16.96;100.00;102101.13;4733270;30;20063;-56
2022/07/22 04:29:56;;;;;;;7.75;2.63;;;;;;;16.95;100.00;102098.63;4743991;30;20060;-60
2022/07/22 04:32:23;;;;;;;7.32;2.45;;;;;;;16.96;100.00;102102.94;4727350;29;20060;-61
2022/07/22 04:34:49;;;;;;;7.07;3.00;;;;;;;16.97;100.00;102097.50;4736241;30;20067;-61
2022/07/22 04:37:15;;;;;;;8.73;2.83;;;;;;;16.97;100.00;102100.16;4741228;30;20064;-60
2022/07/22 04:39:42;;;;;;;8.88;2.97;;;;;;;17.02;100.00;102104.16;4734322;30;20065;-61
2022/07/22 04:42:08;;;;;;;8.18;3.17;;;;;;;17.04;100.00;102091.56;4745420;30;20165;-60
2022/07/22 04:44:35;;;;;;;6.60;2.70;;;;;;;17.06;100.00;102090.41;4740431;30;20139;-60
2022/07/22 04:47:01;;;;;;;11.18;2.83;;;;;;;17.07;100.00;102092.09;4727617;30;20073;-60
2022/07/22 04:49:34;;;;;;;7.90;2.33;;;;;;;17.09;100.00;102091.91;4724156;30;20096;-61
2022/07/22 04:52:00;;;;;;;7.20;2.28;;;;;;;17.13;100.00;102093.25;4746408;30;20060;-59
2022/07/22 04:54:28;;;;;;;3.75;2.10;;;;;;;17.12;100.00;102089.78;4739219;30;20087;-59
2022/07/22 04:56:54;;;;;;;9.73;2.97;;;;;;;17.12;100.00;102089.78;4734419;30;20482;-61
2022/07/22 04:59:21;;;;;;;8.75;2.38;;;;;;;17.09;100.00;102100.72;4736207;30;20060;-60
2022/07/22 05:01:49;;;;;;;6.07;2.10;;;;;;;17.08;100.00;102093.72;4730732;29;20079;-61
2022/07/22 05:04:16;;;;;;;8.35;2.13;;;;;;;17.08;100.00;102101.69;4745065;30;20173;-60
2022/07/22 05:06:42;;;;;;;11.50;2.30;;;;;;;17.07;100.00;102101.84;4731298;30;20445;-60
2022/07/22 05:09:08;;;;;;;5.00;2.13;;;;;;;17.08;100.00;102100.84;4745296;30;20422;-61
2022/07/22 05:11:35;;;;;;;4.47;2.00;;;;;;;17.05;100.00;102087.91;4741029;30;20052;-61
2022/07/22 05:14:01;;;;;;;8.38;1.70;;;;;;;17.06;100.00;102090.41;4727400;30;20068;-58
2022/07/22 05:16:28;;;;;;;6.68;1.90;;;;;;;17.05;100.00;102090.56;4733293;30;20072;-57
2022/07/22 05:18:54;;;;;;;6.45;1.70;;;;;;;17.06;100.00;102095.72;4734557;30;20072;-60
2022/07/22 05:21:21;;;;;;;9.45;1.95;;;;;;;17.04;100.00;102088.91;4743599;30;20144;-61
2022/07/22 05:23:48;;;;;;;7.03;1.80;;;;;;;17.04;100.00;102099.50;4743398;30;20060;-61
2022/07/22 05:26:14;;;;;;;6.53;2.08;;;;;;;17.04;100.00;102088.91;4749607;30;20063;-61
2022/07/22 05:28:40;;;;;;;7.10;2.08;;;;;;;17.02;100.00;102089.06;4732099;30;20419;-61
2022/07/22 05:31:07;;;;;;;9.43;2.90;;;;;;;17.02;100.00;102082.94;4732909;30;20514;-61
2022/07/22 05:33:33;;;;;;;8.15;1.67;;;;;;;17.03;100.00;102092.53;4747733;30;20072;-61
2022/07/22 05:36:00;;;;;;;4.80;1.60;;;;;;;17.03;100.00;102097.84;4735543;30;20056;-60
2022/07/22 05:38:27;;;;;;;9.95;2.17;;;;;;;17.03;100.00;102095.19;4749260;30;20064;-60
2022/07/22 05:40:53;;;;;;;11.50;2.00;;;;;;;17.05;100.00;102098.50;4737688;30;20056;-60
2022/07/22 05:43:20;;;;;;;10.65;2.40;;;;;;;17.03;100.00;102095.19;4745009;30;20064;-61
2022/07/22 05:45:46;;;;;;;6.85;2.08;;;;;;;17.06;100.00;102101.00;4746100;30;20086;-61
2022/07/22 05:48:12;;;;;;;9.90;2.28;;;;;;;17.05;100.00;102101.16;4740009;30;20057;-61
2022/07/22 05:50:39;;;;;;;8.75;2.35;;;;;;;17.07;100.00;102097.38;4733249;30;20060;-61
2022/07/22 05:53:05;;;;;;;7.72;2.00;;;;;;;17.09;100.00;102105.16;4741399;30;20147;-61
2022/07/22 05:55:33;;;;;;;9.30;2.13;;;;;;;17.11;100.00;102104.03;4740667;30;20052;-60
2022/07/22 05:57:59;;;;;;;5.43;1.98;;;;;;;17.11;100.00;102108.47;4728279;30;20548;-61
2022/07/22 06:00:25;;;;;;;4.97;1.63;;;;;;;17.13;100.00;102117.09;4733729;30;20056;-58
2022/07/22 06:02:52;;;;;;;5.50;1.90;;;;;;;17.16;100.00;102103.53;4751322;30;20060;-61
2022/07/22 06:05:19;;;;;;;6.97;1.90;;;;;;;17.25;100.00;102107.06;4743093;30;20437;-61
2022/07/22 06:08:02;;;;;;;5.88;2.03;;;;;;;17.27;100.00;102105.06;4741382;30;20068;-61
2022/07/22 06:10:28;;;;;;;11.80;1.90;;;;;;;17.31;100.00;102109.91;4739927;30;20080;-59
2022/07/22 06:12:55;;;;;;;6.10;2.20;;;;;;;17.33;100.00;102102.63;4745123;30;20067;-60
2022/07/22 06:15:21;;;;;;;6.93;1.80;;;;;;;17.34;100.00;102101.63;4745256;30;20066;-60
2022/07/22 06:17:53;;;;;;;4.70;1.73;;;;;;;17.41;100.00;102106.31;4751908;30;20060;-60
2022/07/22 06:20:19;;;;;;;8.25;2.10;;;;;;;17.43;100.00;102115.75;4734101;30;20174;-60
2022/07/22 06:22:46;;;;;;;4.88;1.77;;;;;;;17.42;100.00;102114.09;4748979;30;20072;-61
2022/07/22 06:25:12;;;;;;;7.10;2.05;;;;;;;17.46;100.00;102118.06;4742568;30;20060;-59
2022/07/22 06:27:58;;;;;;;6.05;2.00;;;;;;;17.51;100.00;102125.56;4737031;30;20057;-59
2022/07/22 06:30:26;;;;;;;7.10;2.22;;;;;;;17.51;100.00;102114.97;4739658;30;20131;-61
2022/07/22 06:32:53;;;;;;;6.82;2.30;;;;;;;17.57;100.00;102111.66;4740353;30;20056;-65
2022/07/22 06:35:24;;;;;;;6.65;1.85;;;;;;;17.63;100.00;102108.34;4737040;30;20075;-62
2022/07/22 06:37:51;;;;;;;6.13;1.90;;;;;;;17.69;100.00;102109.53;4728936;30;20064;-60
2022/07/22 06:40:34;;;;;;;8.95;1.80;;;;;;;17.68;100.00;102105.22;4740468;30;20059;-62
2022/07/22 06:43:01;;;;;;;7.40;2.10;;;;;;;17.75;100.00;102109.72;4738303;30;20192;-59
2022/07/22 06:45:28;;;;;;;7.43;2.00;;;;;;;17.77;100.00;102105.06;4739226;30;20064;-60
2022/07/22 06:47:55;;;;;;;7.28;2.20;;;;;;;17.79;100.00;102113.69;4731690;30;20075;-61
2022/07/22 06:50:22;;;;;;;4.68;1.67;;;;;;;17.77;100.00;102110.38;4739737;30;20060;-61
2022/07/22 06:52:49;;;;;;;5.90;2.10;;;;;;;17.77;100.00;102110.38;4738055;30;20057;-61
2022/07/22 06:55:16;;;;;;;7.88;2.42;;;;;;;17.65;100.00;102105.56;4721028;30;20143;-62
2022/07/22 06:57:43;;;;;;;8.10;1.88;;;;;;;17.67;100.00;102106.22;4751923;30;20071;-61
2022/07/22 07:00:10;;;;;;;6.63;2.47;;;;;;;17.76;100.00;102105.25;4738828;30;20064;-61
2022/07/22 07:02:36;;;;;;;4.78;1.60;;;;;;;17.82;100.00;102096.63;4741098;30;20505;-61
2022/07/22 07:05:03;;;;;;;5.80;1.65;;;;;;;17.82;100.00;102093.13;4741985;30;20063;-61
2022/07/22 07:07:30;;;;;;;6.82;1.92;;;;;;;17.87;100.00;102104.13;4732277;30;20148;-59
2022/07/22 07:09:58;;;;;;;;;;;;;;;18.00;100.00;102099.19;4749729;30;20114;-58
2022/07/22 07:12:25;;;;;;;7.95;1.75;;;;;;;18.01;100.00;102092.84;4726756;30;19930;-61
2022/07/22 07:14:52;;;;;;;7.28;1.83;;;;;;;18.09;100.00;102092.03;4753202;30;20064;-61
2022/07/22 07:17:39;;;;;;;5.38;1.33;;;;;;;18.20;100.00;102097.03;4737669;30;20564;-61
2022/07/22 07:20:06;;;;;;;9.68;1.42;;;;;;;18.26;100.00;102095.53;4732847;30;20537;-61
2022/07/22 07:22:33;;;;;;;4.25;1.35;;;;;;;18.30;100.00;102099.53;4739953;30;20056;-61
2022/07/22 07:25:04;;;;;;;8.98;2.25;;;;;;;18.37;100.00;102098.69;4733971;29;20063;-59
2022/07/22 07:27:48;;;;;;;7.35;1.48;;;;;;;18.45;100.00;102099.69;4742130;30;20060;-61
2022/07/22 07:30:15;;;;;;;8.07;1.40;;;;;;;18.52;100.00;102090.88;4740296;30;20060;-59
2022/07/22 07:32:42;;;;;;;7.03;1.70;;;;;;;18.57;100.00;102090.38;4720378;30;20056;-63
2022/07/22 07:35:09;;;;;;;3.92;1.15;;;;;;;18.67;100.00;102084.88;4721495;29;20066;-61
2022/07/22 07:37:36;;;;;;;5.53;1.33;;;;;;;18.72;100.00;102090.53;4724207;30;20606;-61
2022/07/22 07:40:04;;;;;;;4.40;1.25;;;;;;;18.83;100.00;102092.00;4732602;30;20422;-60
2022/07/22 07:42:30;;;;;;;7.03;1.20;;;;;;;18.86;100.00;102087.19;4733083;30;20056;-61
2022/07/22 07:44:57;;;;;;;4.90;1.35;;;;;;;18.95;100.00;102095.94;4733171;30;20071;-61
2022/07/22 07:47:23;;;;;;;4.00;1.30;;;;;;;18.94;100.00;102094.31;4715582;30;20639;-60
2022/07/22 07:49:50;;;;;;;7.25;1.98;;;;;;;19.00;100.00;102100.78;4714868;30;20072;-61
2022/07/22 07:52:17;;;;;;;7.28;1.38;;;;;;;19.06;100.00;102105.41;4709280;30;20056;-61
2022/07/22 07:54:44;;;;;;;7.57;1.55;;;;;;;19.09;100.00;102102.38;4739106;30;20577;-61
2022/07/22 07:57:30;;;;;;;5.85;1.50;;;;;;;19.05;100.00;102093.94;4730231;30;20310;-61
2022/07/22 07:59:56;;;;;;;9.50;1.73;;;;;;;19.10;100.00;102098.75;4720288;30;20179;-62
2022/07/22 08:02:23;;;;;;;8.75;1.60;;;;;;;19.13;100.00;102104.56;4731947;30;20052;-61
2022/07/22 08:04:50;;;;;;;6.28;1.60;;;;;;;19.16;100.00;102104.19;4727535;30;20510;-60
2022/07/22 08:07:24;;;;;;;8.43;1.52;;;;;;;19.26;100.00;102104.00;4737972;30;20118;-61
2022/07/22 08:09:52;;;;;;;6.82;1.65;;;;;;;19.37;100.00;102105.47;4728133;30;20060;-59
2022/07/22 08:12:38;;;;;;;7.68;1.33;;;;;;;19.43;100.00;102101.28;4728467;30;20068;-60
2022/07/22 08:15:05;;;;;;;5.78;1.35;;;;;;;19.51;100.00;102102.06;4729776;30;20064;-60
2022/07/22 08:17:34;;;;;;;5.13;1.27;;;;;;;19.52;100.00;102101.06;4730542;30;20255;-60
2022/07/22 08:20:03;;;;;;;7.10;1.85;;;;;;;19.57;100.00;102100.53;4731840;30;20060;-62
2022/07/22 08:22:30;;;;;;;6.90;1.50;;;;;;;19.54;100.00;102103.53;4735287;30;20764;-60
2022/07/22 08:24:57;;;;;;;7.53;1.65;;;;;;;19.60;100.00;102105.50;4730623;30;20064;-59
2022/07/22 08:27:23;;;;;;;6.68;1.52;;;;;;;19.62;100.00;102108.81;4728021;30;20063;-59
2022/07/22 08:29:50;;;;;;;6.85;1.58;;;;;;;19.64;100.00;102105.97;4727710;30;20499;-59
2022/07/22 08:32:16;;;;;;;6.10;1.45;;;;;;;19.77;100.00;102105.44;4735053;30;20067;-60
2022/07/22 08:34:43;;;;;;;2.42;1.33;;;;;;;19.74;100.00;102107.44;4720985;29;20065;-60
2022/07/22 08:37:10;;;;;;;8.75;2.33;;;;;;;19.80;100.00;102103.25;4732486;30;20542;-61
2022/07/22 08:39:36;;;;;;;7.13;1.60;;;;;;;19.90;100.00;102095.03;4728962;30;20075;-60
2022/07/22 08:42:03;;;;;;;6.45;1.80;;;;;;;20.04;100.00;102090.78;4733162;30;20501;-61
2022/07/22 08:44:32;;;;;;;7.10;1.95;;;;;;;20.21;100.00;102078.13;4726202;30;20533;-60
2022/07/22 08:46:59;;;;;;;4.10;1.70;;;;;;;20.34;100.00;102081.84;4732777;30;20075;-60
2022/07/22 08:49:38;;;;;;;5.97;1.85;;;;;;;20.49;100.00;102091.72;4742395;30;20072;-60
2022/07/22 08:52:05;;;;;;;7.10;1.58;;;;;;;20.54;100.00;102084.84;4741085;30;20494;-61
2022/07/22 08:54:31;;;;;;;5.70;1.95;;;;;;;20.68;100.00;102080.56;4742776;30;20502;-62
2022/07/22 08:56:57;;;;;;;6.65;1.80;;;;;;;20.77;100.00;102075.13;4726032;30;20072;-62
2022/07/22 08:59:25;;;;;;;6.68;2.05;;;;;;;20.87;100.00;102073.84;4743300;30;20060;-62
2022/07/22 09:02:09;;;;;;;4.70;1.63;;;;;;;20.97;100.00;102080.75;4744292;29;20071;-62
2022/07/22 09:04:57;;;;;;;6.20;1.77;;;;;;;21.00;100.00;102083.88;4735797;30;20151;-62
2022/07/22 09:07:32;;;;;;;6.05;1.77;;;;;;;21.04;100.00;102092.34;4734992;30;20053;-62
2022/07/22 09:09:59;;;;;;;5.53;1.90;;;;;;;21.04;100.00;102090.50;4734824;30;20438;-62
2022/07/22 09:12:27;;;;;;;5.45;1.83;;;;;;;21.09;100.00;102093.44;4751150;30;20099;-63
2022/07/22 09:14:56;;;;;;;6.28;2.25;;;;;;;21.10;100.00;102087.06;4733849;30;20064;-64
2022/07/22 09:17:34;;;;;;;6.10;1.80;;;;;;;21.11;100.00;102086.06;4742073;30;20515;-62
2022/07/22 09:20:00;;;;;;;8.38;1.63;;;;;;;21.18;100.00;102078.16;4734675;30;20461;-64
2022/07/22 09:22:31;;;;;;;6.25;1.73;;;;;;;21.21;100.00;102069.78;4737461;30;20062;-63
2022/07/22 09:24:57;;;;;;;4.80;1.80;;;;;;;21.18;100.00;102070.13;4729937;30;20074;-62
2022/07/22 09:27:25;;;;;;;4.32;1.35;;;;;;;21.26;100.00;102074.53;4746392;30;20059;-64
2022/07/22 09:29:53;;;;;;;9.32;1.95;;;;;;;21.33;100.00;102072.78;4740556;30;20592;-64
2022/07/22 09:32:20;;;;;;;5.47;1.70;;;;;;;21.39;100.00;102069.38;4730894;30;21097;-63
2022/07/22 09:34:47;;;;;;;4.60;1.88;;;;;;;21.47;100.00;102074.63;4736443;30;20063;-62
2022/07/22 09:37:14;;;;;;;4.15;1.90;;;;;;;21.55;100.00;102075.53;4720244;30;20849;-62
2022/07/22 09:39:41;;;;;;;6.20;1.92;;;;;;;21.57;100.00;102081.50;4739475;30;20071;-62
2022/07/22 09:42:07;;;;;;;9.10;2.38;;;;;;;21.51;100.00;102077.75;4733112;30;20171;-61
2022/07/22 09:44:34;;;;;;;7.10;1.90;;;;;;;21.48;100.00;102075.44;4742724;30;20060;-61
2022/07/22 09:47:01;;;;;;;3.65;1.63;;;;;;;21.46;100.00;102082.81;4742461;30;20064;-61
2022/07/22 09:49:36;;;;;;;4.40;1.80;;;;;;;21.45;100.00;102076.66;4719604;30;20064;-63
2022/07/22 09:52:03;;;;;;;8.43;1.77;;;;;;;21.56;100.00;102066.50;4732336;30;20063;-62
2022/07/22 09:54:29;;;;;;;6.90;1.73;;;;;;;21.61;100.00;102069.44;4723406;30;20080;-63
2022/07/22 09:56:56;;;;;;;4.38;1.45;;;;;;;21.69;100.00;102063.97;4740876;30;20060;-62
2022/07/22 09:59:23;;;;;;;6.80;1.70;;;;;;;21.74;100.00;102066.91;4724156;30;20061;-62
2022/07/22 10:01:54;;;;;;;7.60;1.63;;;;;;;21.69;100.00;102062.13;4732193;30;20071;-62
2022/07/22 10:04:24;;;;;;;8.00;1.80;;;;;;;21.70;100.00;102069.13;4726476;30;20720;-62
2022/07/22 10:06:54;;;;;;;3.63;1.73;;;;;;;21.63;100.00;102056.72;4735949;30;20059;-63
2022/07/22 10:09:21;;;;;;;8.13;1.70;;;;;;;21.71;100.00;102060.06;4743461;30;20060;-62
2022/07/22 10:11:48;;;;;;;9.32;1.88;;;;;;;21.62;100.00;102055.91;4734885;30;20064;-62
2022/07/22 10:14:18;;;;;;;5.30;1.65;;;;;;;21.65;100.00;102050.16;4738255;30;20110;-63
2022/07/22 10:16:48;;;;;;;6.35;2.10;;;;;;;21.84;100.00;102059.41;4729084;30;20140;-63
2022/07/22 10:19:15;;;;;;;5.15;1.60;;;;;;;21.97;100.00;102060.53;4740488;30;20116;-63
2022/07/22 10:21:43;;;;;;;4.22;1.60;;;;;;;22.15;100.00;102055.56;4740539;30;20071;-61
2022/07/22 10:24:11;;;;;;;6.72;1.65;;;;;;;22.32;100.00;102053.44;4731989;30;20071;-63
2022/07/22 10:26:46;;;;;;;;;;;;;;;22.31;100.00;102043.78;4743792;30;20064;-63
2022/07/22 10:29:37;;;;;;;4.55;1.60;;;;;;;22.49;100.00;102051.31;4732708;30;20034;-61
2022/07/22 10:32:16;;;;;;;4.25;1.42;;;;;;;22.79;100.00;102048.38;4734824;30;20070;-62
2022/07/22 10:38:11;;;;;;;3.97;1.40;;;;;;;23.07;99.06;102057.22;4738679;30;20173;-61
2022/07/22 10:41:00;;;;;;;4.15;1.50;;;;;;;23.16;97.70;102054.34;4730346;30;20519;-61
2022/07/22 10:43:29;;;;;;;6.32;1.73;;;;;;;22.94;90.87;102048.25;4738518;30;20068;-62
2022/07/22 10:46:02;;;;;;;4.63;1.40;;;;;;;22.90;98.29;102058.53;4725239;30;20064;-61
2022/07/22 10:48:44;;;;;;;5.45;1.70;;;;;;;22.83;97.68;102058.47;4730194;30;20157;-60
2022/07/22 10:51:22;;;;;;;4.90;1.60;;;;;;;22.84;100.00;102062.81;4726419;30;20553;-62
2022/07/22 10:53:51;;;;;;;;;;;;;;;22.83;97.18;102052.31;4742112;30;20060;-62
2022/07/22 10:56:26;;;;;;;6.53;1.60;;;;;;;22.61;92.15;102051.59;4737230;30;19936;-62
2022/07/22 10:59:14;;;;;;;5.72;1.63;;;;;;;22.63;97.14;102057.56;4732906;30;20068;-62
2022/07/22 11:01:43;;;;;;;6.93;1.60;;;;;;;22.61;93.33;102056.94;4720278;30;20056;-62
2022/07/22 11:04:22;;;;;;;4.53;1.58;;;;;;;22.74;98.52;102045.47;4716827;30;20064;-63
2022/07/22 11:06:50;;;;;;;4.07;1.65;;;;;;;22.86;98.24;102047.41;4733803;30;20153;-61
2022/07/22 11:09:19;;;;;;;6.30;1.45;;;;;;;22.88;92.79;102041.84;4733869;30;20066;-61
2022/07/22 11:11:53;;;;;;;3.70;1.50;;;;;;;22.98;96.37;102053.00;4741739;30;20064;-63
2022/07/22 11:14:31;;;;;;;6.75;1.90;;;;;;;23.02;90.30;102048.94;4727865;30;20487;-63
2022/07/22 11:17:03;;;;;;;8.38;1.90;;;;;;;23.02;89.26;102050.75;4734623;30;20071;-62
2022/07/22 11:19:37;;;;;;;4.68;1.50;;;;;;;22.96;88.24;102047.03;4736624;30;20071;-63
2022/07/22 11:22:09;;;;;;;6.70;1.70;;;;;;;23.04;92.39;102040.72;4725348;30;20071;-63
2022/07/22 11:24:37;;;;;;;7.78;1.75;;;;;;;23.01;90.84;102039.25;4739826;30;20075;-61